AAL1 KPWM-KDTW
Flight info
| Callsign | AAL1 |
|---|---|
| Flight time | 1h 36m |
| Altitude | 38000 |
| Route | HSKEL3 SYR GONZZ DONEO TPGUN2 |
| Aircraft | B738/M-VGDW/C |
Departure
| Time | 2026-05-04 21:01 |
|---|---|
| Airport | Portland International Jetport (KPWM) |
Arrival
| Time | 2026-05-04 22:38 |
|---|---|
| Airport | Detroit Metropolitan Wayne County Airport (KDTW) |
| Time | Latitude | Longitude | Altitude | Speed | Heading |
|---|---|---|---|---|---|
| 2026-05-04 20:33 | 43.64677 | -70.31225 | 65 ft | 0 kts | 29° |
| 2026-05-04 20:52 | 43.64671 | -70.31229 | 65 ft | 2 kts | 37° |
| 2026-05-04 20:52 | 43.64661 | -70.31245 | 65 ft | 2 kts | 56° |
| 2026-05-04 20:52 | 43.64654 | -70.31263 | 65 ft | 2 kts | 73° |
| 2026-05-04 20:53 | 43.64651 | -70.31283 | 66 ft | 2 kts | 90° |
| 2026-05-04 20:53 | 43.64652 | -70.31301 | 66 ft | 0 kts | 96° |
| 2026-05-04 20:53 | 43.64652 | -70.31304 | 66 ft | 0 kts | 95° |
| 2026-05-04 20:53 | 43.64652 | -70.31303 | 66 ft | 0 kts | 95° |
| 2026-05-04 20:56 | 43.64629 | -70.31243 | 65 ft | 13 kts | 126° |
| 2026-05-04 20:56 | 43.64597 | -70.31124 | 63 ft | 14 kts | 93° |
| 2026-05-04 20:57 | 43.64589 | -70.30982 | 60 ft | 15 kts | 96° |
| 2026-05-04 20:57 | 43.64578 | -70.30827 | 57 ft | 17 kts | 96° |
| 2026-05-04 20:57 | 43.64566 | -70.30656 | 54 ft | 18 kts | 95° |
| 2026-05-04 20:57 | 43.64555 | -70.30477 | 49 ft | 15 kts | 89° |
| 2026-05-04 20:58 | 43.64578 | -70.30331 | 47 ft | 15 kts | 75° |
| 2026-05-04 20:58 | 43.64582 | -70.30173 | 44 ft | 17 kts | 95° |
| 2026-05-04 20:58 | 43.64571 | -70.30011 | 40 ft | 9 kts | 95° |
| 2026-05-04 20:58 | 43.64544 | -70.29926 | 39 ft | 10 kts | 154° |
| 2026-05-04 20:59 | 43.64509 | -70.29919 | 39 ft | 0 kts | 179° |
| 2026-05-04 20:59 | 43.64466 | -70.29917 | 39 ft | 15 kts | 175° |
| 2026-05-04 21:00 | 43.64410 | -70.29967 | 39 ft | 9 kts | 266° |
| 2026-05-04 21:00 | 43.64410 | -70.29989 | 40 ft | 0 kts | 274° |
| 2026-05-04 21:00 | 43.64414 | -70.30067 | 41 ft | 34 kts | 274° |
| 2026-05-04 21:00 | 43.64458 | -70.30697 | 54 ft | 96 kts | 275° |
| 2026-05-04 21:01 | 43.64537 | -70.31865 | 70 ft | 147 kts | 275° |
| 2026-05-04 21:01 | 43.64648 | -70.33353 | 548 ft | 153 kts | 275° |
| 2026-05-04 21:01 | 43.64763 | -70.34821 | 1189 ft | 156 kts | 274° |
| 2026-05-04 21:01 | 43.64877 | -70.36294 | 1813 ft | 156 kts | 273° |
| 2026-05-04 21:02 | 43.64977 | -70.37841 | 2130 ft | 170 kts | 273° |
| 2026-05-04 21:02 | 43.65094 | -70.39540 | 2417 ft | 187 kts | 274° |
| 2026-05-04 21:02 | 43.65222 | -70.41361 | 2881 ft | 194 kts | 274° |
| 2026-05-04 21:02 | 43.65360 | -70.43280 | 3206 ft | 208 kts | 274° |
| 2026-05-04 21:03 | 43.65509 | -70.45323 | 3530 ft | 224 kts | 274° |
| 2026-05-04 21:03 | 43.65668 | -70.47485 | 4086 ft | 231 kts | 274° |
| 2026-05-04 21:03 | 43.65933 | -70.49708 | 4588 ft | 240 kts | 281° |
| 2026-05-04 21:03 | 43.66370 | -70.51943 | 5236 ft | 243 kts | 284° |
| 2026-05-04 21:04 | 43.66849 | -70.54175 | 5881 ft | 245 kts | 284° |
| 2026-05-04 21:04 | 43.67326 | -70.56405 | 6686 ft | 241 kts | 284° |
| 2026-05-04 21:04 | 43.67799 | -70.58662 | 7205 ft | 249 kts | 284° |
| 2026-05-04 21:04 | 43.68274 | -70.60953 | 7902 ft | 250 kts | 284° |
| 2026-05-04 21:05 | 43.68734 | -70.63207 | 8659 ft | 249 kts | 284° |
| 2026-05-04 21:05 | 43.69199 | -70.65527 | 9340 ft | 252 kts | 284° |
| 2026-05-04 21:05 | 43.69668 | -70.67850 | 10070 ft | 254 kts | 285° |
| 2026-05-04 21:05 | 43.70155 | -70.70234 | 10589 ft | 264 kts | 285° |
| 2026-05-04 21:06 | 43.70670 | -70.72742 | 10994 ft | 279 kts | 285° |
| 2026-05-04 21:06 | 43.71207 | -70.75350 | 11384 ft | 293 kts | 285° |
| 2026-05-04 21:06 | 43.71761 | -70.78138 | 11762 ft | 307 kts | 283° |
| 2026-05-04 21:06 | 43.72010 | -70.81099 | 12270 ft | 317 kts | 268° |
| 2026-05-04 21:07 | 43.71513 | -70.84084 | 12956 ft | 325 kts | 253° |
| 2026-05-04 21:07 | 43.70669 | -70.86994 | 13651 ft | 330 kts | 250° |
| 2026-05-04 21:07 | 43.69761 | -70.89913 | 14397 ft | 333 kts | 250° |
| 2026-05-04 21:07 | 43.68861 | -70.92833 | 15109 ft | 337 kts | 251° |
| 2026-05-04 21:08 | 43.67965 | -70.95814 | 15871 ft | 339 kts | 251° |
| 2026-05-04 21:08 | 43.67078 | -70.98832 | 16576 ft | 342 kts | 252° |
| 2026-05-04 21:08 | 43.66195 | -71.01879 | 17287 ft | 345 kts | 252° |
| 2026-05-04 21:08 | 43.65333 | -71.04971 | 17976 ft | 348 kts | 254° |
| 2026-05-04 21:09 | 43.64627 | -71.08153 | 18669 ft | 349 kts | 258° |
| 2026-05-04 21:09 | 43.64035 | -71.11407 | 19278 ft | 353 kts | 260° |
| 2026-05-04 21:09 | 43.63475 | -71.14723 | 19832 ft | 359 kts | 261° |
| 2026-05-04 21:09 | 43.62907 | -71.18069 | 20465 ft | 362 kts | 261° |
| 2026-05-04 21:10 | 43.62322 | -71.21455 | 21019 ft | 367 kts | 261° |
| 2026-05-04 21:10 | 43.61725 | -71.24858 | 21531 ft | 372 kts | 260° |
| 2026-05-04 21:10 | 43.61107 | -71.28327 | 22158 ft | 374 kts | 261° |
| 2026-05-04 21:10 | 43.60480 | -71.31818 | 22666 ft | 379 kts | 260° |
| 2026-05-04 21:11 | 43.59840 | -71.35366 | 23210 ft | 383 kts | 261° |
| 2026-05-04 21:11 | 43.59192 | -71.38934 | 23791 ft | 385 kts | 261° |
| 2026-05-04 21:11 | 43.58538 | -71.42522 | 24332 ft | 389 kts | 261° |
| 2026-05-04 21:11 | 43.57879 | -71.46136 | 24855 ft | 393 kts | 261° |
| 2026-05-04 21:12 | 43.57219 | -71.49739 | 25431 ft | 394 kts | 261° |
| 2026-05-04 21:12 | 43.56543 | -71.53423 | 25936 ft | 397 kts | 261° |
| 2026-05-04 21:12 | 43.55863 | -71.57120 | 26471 ft | 399 kts | 261° |
| 2026-05-04 21:12 | 43.55178 | -71.60843 | 26831 ft | 405 kts | 261° |
| 2026-05-04 21:13 | 43.54485 | -71.64597 | 27392 ft | 406 kts | 261° |
| 2026-05-04 21:13 | 43.53787 | -71.68371 | 27864 ft | 408 kts | 260° |
| 2026-05-04 21:13 | 43.53082 | -71.72173 | 28304 ft | 412 kts | 261° |
| 2026-05-04 21:13 | 43.52374 | -71.75988 | 28760 ft | 414 kts | 261° |
| 2026-05-04 21:14 | 43.51655 | -71.79855 | 29196 ft | 417 kts | 261° |
| 2026-05-04 21:14 | 43.50938 | -71.83703 | 29626 ft | 419 kts | 261° |
| 2026-05-04 21:14 | 43.50218 | -71.87554 | 30108 ft | 420 kts | 261° |
| 2026-05-04 21:14 | 43.49485 | -71.91477 | 30413 ft | 425 kts | 261° |
| 2026-05-04 21:15 | 43.48747 | -71.95417 | 30892 ft | 425 kts | 261° |
| 2026-05-04 21:15 | 43.48018 | -71.99276 | 31560 ft | 420 kts | 261° |
| 2026-05-04 21:15 | 43.47287 | -72.03134 | 32174 ft | 416 kts | 261° |
| 2026-05-04 21:15 | 43.46561 | -72.06960 | 32718 ft | 413 kts | 261° |
| 2026-05-04 21:16 | 43.45837 | -72.10780 | 33148 ft | 412 kts | 262° |
| 2026-05-04 21:16 | 43.45124 | -72.14550 | 33551 ft | 411 kts | 261° |
| 2026-05-04 21:16 | 43.44402 | -72.18356 | 33957 ft | 411 kts | 262° |
| 2026-05-04 21:16 | 43.43680 | -72.22154 | 34338 ft | 410 kts | 262° |
| 2026-05-04 21:17 | 43.42968 | -72.25891 | 34843 ft | 406 kts | 262° |
| 2026-05-04 21:17 | 43.42247 | -72.29664 | 35204 ft | 404 kts | 262° |
| 2026-05-04 21:17 | 43.41536 | -72.33387 | 35412 ft | 405 kts | 262° |
| 2026-05-04 21:17 | 43.40824 | -72.37112 | 35638 ft | 405 kts | 262° |
| 2026-05-04 21:18 | 43.40100 | -72.40865 | 35841 ft | 406 kts | 261° |
| 2026-05-04 21:18 | 43.39319 | -72.44545 | 36050 ft | 408 kts | 259° |
| 2026-05-04 21:18 | 43.38308 | -72.48228 | 36274 ft | 411 kts | 253° |
| 2026-05-04 21:18 | 43.37040 | -72.51778 | 36468 ft | 415 kts | 248° |
| 2026-05-04 21:19 | 43.35612 | -72.55220 | 36627 ft | 418 kts | 246° |
| 2026-05-04 21:19 | 43.34096 | -72.58636 | 36788 ft | 420 kts | 245° |
| 2026-05-04 21:19 | 43.32539 | -72.62051 | 36982 ft | 420 kts | 245° |
| 2026-05-04 21:19 | 43.30989 | -72.65424 | 37166 ft | 420 kts | 243° |
| 2026-05-04 21:20 | 43.29429 | -72.68822 | 37355 ft | 420 kts | 243° |
| 2026-05-04 21:20 | 43.27876 | -72.72213 | 37526 ft | 420 kts | 244° |
| 2026-05-04 21:20 | 43.26343 | -72.75571 | 37682 ft | 421 kts | 244° |
| 2026-05-04 21:20 | 43.24794 | -72.78972 | 37790 ft | 422 kts | 243° |
| 2026-05-04 21:21 | 43.21662 | -72.85864 | 37821 ft | 429 kts | 244° |
| 2026-05-04 21:21 | 43.18477 | -72.92864 | 37811 ft | 435 kts | 244° |
| 2026-05-04 21:22 | 43.15268 | -72.99895 | 37811 ft | 438 kts | 243° |
| 2026-05-04 21:22 | 43.12033 | -73.06960 | 37835 ft | 438 kts | 243° |
| 2026-05-04 21:23 | 43.08802 | -73.13999 | 37841 ft | 437 kts | 244° |
| 2026-05-04 21:23 | 43.07196 | -73.17495 | 37738 ft | 435 kts | 243° |
| 2026-05-04 21:23 | 43.05605 | -73.20957 | 37833 ft | 436 kts | 243° |
| 2026-05-04 21:24 | 43.02391 | -73.28037 | 37830 ft | 439 kts | 246° |
| 2026-05-04 21:24 | 43.00135 | -73.35670 | 37834 ft | 430 kts | 262° |
| 2026-05-04 21:25 | 42.99594 | -73.43660 | 37829 ft | 425 kts | 273° |
| 2026-05-04 21:25 | 42.99717 | -73.51669 | 37827 ft | 422 kts | 275° |
| 2026-05-04 21:26 | 42.99970 | -73.59703 | 37825 ft | 423 kts | 276° |
| 2026-05-04 21:26 | 43.00205 | -73.67721 | 37814 ft | 424 kts | 275° |
| 2026-05-04 21:27 | 43.00408 | -73.75743 | 37807 ft | 424 kts | 275° |
| 2026-05-04 21:27 | 43.00590 | -73.83781 | 37803 ft | 425 kts | 275° |
| 2026-05-04 21:28 | 43.00761 | -73.91811 | 37804 ft | 426 kts | 275° |
| 2026-05-04 21:28 | 43.00925 | -73.99861 | 37826 ft | 426 kts | 275° |
| 2026-05-04 21:29 | 43.01083 | -74.07937 | 37823 ft | 425 kts | 275° |
| 2026-05-04 21:29 | 43.01234 | -74.15951 | 37817 ft | 425 kts | 275° |
| 2026-05-04 21:30 | 43.01382 | -74.24000 | 37818 ft | 425 kts | 275° |
| 2026-05-04 21:30 | 43.01621 | -74.32022 | 37818 ft | 424 kts | 277° |
| 2026-05-04 21:31 | 43.02204 | -74.44059 | 37809 ft | 424 kts | 277° |
| 2026-05-04 21:32 | 43.02587 | -74.52093 | 37803 ft | 423 kts | 277° |
| 2026-05-04 21:32 | 43.02949 | -74.60073 | 37811 ft | 424 kts | 277° |
| 2026-05-04 21:33 | 43.03299 | -74.68119 | 37795 ft | 423 kts | 276° |
| 2026-05-04 21:33 | 43.03636 | -74.76084 | 37786 ft | 423 kts | 276° |
| 2026-05-04 21:34 | 43.03969 | -74.84116 | 37803 ft | 423 kts | 276° |
| 2026-05-04 21:34 | 43.04294 | -74.92104 | 37808 ft | 423 kts | 276° |
| 2026-05-04 21:35 | 43.04614 | -75.00082 | 37790 ft | 421 kts | 276° |
| 2026-05-04 21:35 | 43.04927 | -75.08056 | 37812 ft | 424 kts | 276° |
| 2026-05-04 21:36 | 43.05234 | -75.16025 | 37814 ft | 422 kts | 276° |
| 2026-05-04 21:36 | 43.05535 | -75.23996 | 37812 ft | 421 kts | 276° |
| 2026-05-04 21:37 | 43.05829 | -75.31988 | 37800 ft | 421 kts | 276° |
| 2026-05-04 21:37 | 43.06066 | -75.39961 | 37804 ft | 421 kts | 276° |
| 2026-05-04 21:38 | 43.06280 | -75.47965 | 37798 ft | 422 kts | 276° |
| 2026-05-04 21:38 | 43.06488 | -75.55901 | 37794 ft | 419 kts | 276° |
| 2026-05-04 21:39 | 43.06694 | -75.63847 | 37789 ft | 419 kts | 276° |
| 2026-05-04 21:39 | 43.06899 | -75.71812 | 37783 ft | 421 kts | 275° |
| 2026-05-04 21:40 | 43.07099 | -75.79735 | 37790 ft | 419 kts | 275° |
| 2026-05-04 21:40 | 43.07293 | -75.87665 | 37778 ft | 419 kts | 275° |
| 2026-05-04 21:41 | 43.07481 | -75.95615 | 37789 ft | 418 kts | 275° |
| 2026-05-04 21:41 | 43.07663 | -76.03526 | 37785 ft | 418 kts | 275° |
| 2026-05-04 21:42 | 43.07839 | -76.11466 | 37773 ft | 418 kts | 275° |
| 2026-05-04 21:42 | 43.08011 | -76.19399 | 37771 ft | 418 kts | 275° |
| 2026-05-04 21:43 | 43.08177 | -76.27317 | 37773 ft | 417 kts | 275° |
| 2026-05-04 21:43 | 43.08337 | -76.35207 | 37774 ft | 417 kts | 275° |
| 2026-05-04 21:44 | 43.08491 | -76.43074 | 37762 ft | 416 kts | 275° |
| 2026-05-04 21:44 | 43.08641 | -76.51002 | 37759 ft | 417 kts | 275° |
| 2026-05-04 21:45 | 43.08782 | -76.58882 | 37756 ft | 417 kts | 275° |
| 2026-05-04 21:45 | 43.08916 | -76.66802 | 37759 ft | 417 kts | 274° |
| 2026-05-04 21:46 | 43.08591 | -76.74705 | 37752 ft | 421 kts | 267° |
| 2026-05-04 21:46 | 43.07864 | -76.82620 | 37740 ft | 421 kts | 266° |
| 2026-05-04 21:47 | 43.07095 | -76.90514 | 37753 ft | 421 kts | 266° |
| 2026-05-04 21:47 | 43.06347 | -76.98471 | 37754 ft | 420 kts | 266° |
| 2026-05-04 21:48 | 43.05625 | -77.06347 | 37742 ft | 421 kts | 266° |
| 2026-05-04 21:48 | 43.04907 | -77.14247 | 37748 ft | 421 kts | 266° |
| 2026-05-04 21:49 | 43.04188 | -77.22143 | 37753 ft | 420 kts | 266° |
| 2026-05-04 21:49 | 43.03463 | -77.30045 | 37759 ft | 421 kts | 266° |
| 2026-05-04 21:50 | 43.02736 | -77.37932 | 37749 ft | 420 kts | 266° |
| 2026-05-04 21:50 | 43.01998 | -77.45854 | 37742 ft | 420 kts | 266° |
| 2026-05-04 21:51 | 43.01263 | -77.53699 | 37748 ft | 420 kts | 266° |
| 2026-05-04 21:51 | 43.00517 | -77.61603 | 37743 ft | 419 kts | 266° |
| 2026-05-04 21:52 | 42.99767 | -77.69479 | 37743 ft | 421 kts | 266° |
| 2026-05-04 21:52 | 42.99009 | -77.77399 | 37737 ft | 421 kts | 265° |
| 2026-05-04 21:53 | 42.98245 | -77.85310 | 37738 ft | 422 kts | 265° |
| 2026-05-04 21:53 | 42.97476 | -77.93219 | 37744 ft | 421 kts | 266° |
| 2026-05-04 21:54 | 42.96700 | -78.01135 | 37746 ft | 422 kts | 265° |
| 2026-05-04 21:54 | 42.95919 | -78.09037 | 37743 ft | 420 kts | 265° |
| 2026-05-04 21:55 | 42.95135 | -78.16922 | 37750 ft | 420 kts | 265° |
| 2026-05-04 21:55 | 42.94349 | -78.24772 | 37746 ft | 420 kts | 265° |
| 2026-05-04 21:56 | 42.93550 | -78.32682 | 37745 ft | 421 kts | 265° |
| 2026-05-04 21:56 | 42.92756 | -78.40498 | 37745 ft | 420 kts | 265° |
| 2026-05-04 21:57 | 42.91951 | -78.48373 | 37735 ft | 420 kts | 265° |
| 2026-05-04 21:57 | 42.91140 | -78.56239 | 37736 ft | 419 kts | 265° |
| 2026-05-04 21:58 | 42.90327 | -78.64069 | 37732 ft | 418 kts | 265° |
| 2026-05-04 21:58 | 42.89498 | -78.72002 | 37730 ft | 420 kts | 265° |
| 2026-05-04 21:59 | 42.88674 | -78.79833 | 37722 ft | 419 kts | 265° |
| 2026-05-04 21:59 | 42.87846 | -78.87647 | 37724 ft | 418 kts | 265° |
| 2026-05-04 22:00 | 42.87013 | -78.95467 | 37723 ft | 419 kts | 265° |
| 2026-05-04 22:00 | 42.86174 | -79.03268 | 37722 ft | 417 kts | 264° |
| 2026-05-04 22:01 | 42.85329 | -79.11092 | 37720 ft | 418 kts | 264° |
| 2026-05-04 22:01 | 42.84482 | -79.18887 | 37702 ft | 418 kts | 264° |
| 2026-05-04 22:02 | 42.83625 | -79.26719 | 37723 ft | 419 kts | 264° |
| 2026-05-04 22:02 | 42.82768 | -79.34499 | 37723 ft | 419 kts | 264° |
| 2026-05-04 22:03 | 42.81903 | -79.42300 | 37721 ft | 419 kts | 264° |
| 2026-05-04 22:03 | 42.81030 | -79.50127 | 37716 ft | 419 kts | 264° |
| 2026-05-04 22:04 | 42.80150 | -79.57958 | 37717 ft | 419 kts | 264° |
| 2026-05-04 22:04 | 42.79274 | -79.65703 | 37710 ft | 418 kts | 263° |
| 2026-05-04 22:05 | 42.78384 | -79.73557 | 37713 ft | 419 kts | 264° |
| 2026-05-04 22:05 | 42.77664 | -79.81347 | 37704 ft | 417 kts | 266° |
| 2026-05-04 22:06 | 42.77042 | -79.89201 | 37701 ft | 419 kts | 266° |
| 2026-05-04 22:06 | 42.76417 | -79.97006 | 37703 ft | 418 kts | 266° |
| 2026-05-04 22:07 | 42.75767 | -80.04832 | 37706 ft | 418 kts | 265° |
| 2026-05-04 22:07 | 42.75100 | -80.12690 | 37716 ft | 418 kts | 266° |
| 2026-05-04 22:08 | 42.74430 | -80.20469 | 37717 ft | 417 kts | 266° |
| 2026-05-04 22:08 | 42.73747 | -80.28325 | 37712 ft | 417 kts | 265° |
| 2026-05-04 22:09 | 42.73063 | -80.36092 | 37705 ft | 418 kts | 265° |
| 2026-05-04 22:09 | 42.72540 | -80.43934 | 37715 ft | 416 kts | 269° |
| 2026-05-04 22:10 | 42.72243 | -80.51776 | 37707 ft | 416 kts | 269° |
| 2026-05-04 22:10 | 42.71960 | -80.59566 | 37704 ft | 416 kts | 269° |
| 2026-05-04 22:11 | 42.71646 | -80.67438 | 37693 ft | 417 kts | 268° |
| 2026-05-04 22:11 | 42.71310 | -80.75261 | 37695 ft | 417 kts | 268° |
| 2026-05-04 22:12 | 42.70959 | -80.83099 | 37677 ft | 416 kts | 268° |
| 2026-05-04 22:12 | 42.70598 | -80.90939 | 37681 ft | 417 kts | 268° |
| 2026-05-04 22:13 | 42.70229 | -80.98795 | 37686 ft | 417 kts | 268° |
| 2026-05-04 22:13 | 42.69857 | -81.06634 | 37639 ft | 415 kts | 268° |
| 2026-05-04 22:13 | 42.69670 | -81.10516 | 36806 ft | 417 kts | 268° |
| 2026-05-04 22:14 | 42.69481 | -81.14385 | 36368 ft | 405 kts | 268° |
| 2026-05-04 22:14 | 42.69295 | -81.18150 | 35716 ft | 398 kts | 268° |
| 2026-05-04 22:14 | 42.69113 | -81.21828 | 34748 ft | 399 kts | 268° |
| 2026-05-04 22:14 | 42.68929 | -81.25588 | 33433 ft | 404 kts | 268° |
| 2026-05-04 22:15 | 42.68742 | -81.29388 | 32060 ft | 408 kts | 267° |
| 2026-05-04 22:15 | 42.68552 | -81.33221 | 30837 ft | 407 kts | 267° |
| 2026-05-04 22:15 | 42.68342 | -81.37021 | 30085 ft | 397 kts | 265° |
| 2026-05-04 22:15 | 42.68067 | -81.40691 | 29352 ft | 388 kts | 265° |
| 2026-05-04 22:16 | 42.67753 | -81.44313 | 28426 ft | 384 kts | 264° |
| 2026-05-04 22:16 | 42.67429 | -81.47854 | 27563 ft | 378 kts | 264° |
| 2026-05-04 22:16 | 42.67108 | -81.51356 | 26653 ft | 374 kts | 264° |
| 2026-05-04 22:16 | 42.66796 | -81.54812 | 25817 ft | 367 kts | 264° |
| 2026-05-04 22:17 | 42.66494 | -81.58190 | 24995 ft | 362 kts | 264° |
| 2026-05-04 22:17 | 42.66198 | -81.61539 | 24227 ft | 354 kts | 264° |
| 2026-05-04 22:17 | 42.65913 | -81.64769 | 23746 ft | 340 kts | 264° |
| 2026-05-04 22:17 | 42.65634 | -81.67958 | 23307 ft | 338 kts | 264° |
| 2026-05-04 22:18 | 42.65353 | -81.71188 | 22839 ft | 350 kts | 264° |
| 2026-05-04 22:18 | 42.65068 | -81.74461 | 22339 ft | 347 kts | 264° |
| 2026-05-04 22:18 | 42.64790 | -81.77647 | 21847 ft | 335 kts | 264° |
| 2026-05-04 22:18 | 42.64520 | -81.80718 | 21391 ft | 327 kts | 263° |
| 2026-05-04 22:19 | 42.64248 | -81.83793 | 20934 ft | 333 kts | 264° |
| 2026-05-04 22:19 | 42.63972 | -81.86909 | 20459 ft | 339 kts | 264° |
| 2026-05-04 22:19 | 42.63693 | -81.90053 | 19974 ft | 331 kts | 263° |
| 2026-05-04 22:19 | 42.63423 | -81.93076 | 19512 ft | 320 kts | 264° |
| 2026-05-04 22:20 | 42.63156 | -81.96056 | 19058 ft | 321 kts | 263° |
| 2026-05-04 22:20 | 42.62884 | -81.99100 | 18572 ft | 331 kts | 263° |
| 2026-05-04 22:20 | 42.62607 | -82.02202 | 18077 ft | 327 kts | 263° |
| 2026-05-04 22:20 | 42.62336 | -82.05212 | 17527 ft | 317 kts | 263° |
| 2026-05-04 22:21 | 42.62072 | -82.08134 | 16784 ft | 313 kts | 263° |
| 2026-05-04 22:21 | 42.61811 | -82.11015 | 16376 ft | 305 kts | 263° |
| 2026-05-04 22:21 | 42.61548 | -82.13902 | 15952 ft | 313 kts | 263° |
| 2026-05-04 22:21 | 42.61280 | -82.16840 | 15658 ft | 314 kts | 263° |
| 2026-05-04 22:22 | 42.61013 | -82.19756 | 15319 ft | 315 kts | 263° |
| 2026-05-04 22:22 | 42.60748 | -82.22653 | 14860 ft | 304 kts | 263° |
| 2026-05-04 22:22 | 42.60491 | -82.25447 | 14427 ft | 297 kts | 263° |
| 2026-05-04 22:22 | 42.60233 | -82.28252 | 13981 ft | 305 kts | 263° |
| 2026-05-04 22:23 | 42.59968 | -82.31123 | 13499 ft | 308 kts | 262° |
| 2026-05-04 22:23 | 42.59705 | -82.33955 | 13036 ft | 297 kts | 263° |
| 2026-05-04 22:23 | 42.59450 | -82.36694 | 12621 ft | 291 kts | 262° |
| 2026-05-04 22:23 | 42.59195 | -82.39430 | 12127 ft | 300 kts | 262° |
| 2026-05-04 22:24 | 42.58862 | -82.42217 | 11659 ft | 298 kts | 256° |
| 2026-05-04 22:24 | 42.58231 | -82.44867 | 11217 ft | 295 kts | 249° |
| 2026-05-04 22:24 | 42.57426 | -82.47418 | 10746 ft | 292 kts | 247° |
| 2026-05-04 22:24 | 42.56594 | -82.49895 | 10442 ft | 284 kts | 247° |
| 2026-05-04 22:25 | 42.55809 | -82.52278 | 10289 ft | 270 kts | 248° |
| 2026-05-04 22:25 | 42.55088 | -82.54539 | 10218 ft | 256 kts | 248° |
| 2026-05-04 22:25 | 42.54410 | -82.56718 | 10109 ft | 244 kts | 248° |
| 2026-05-04 22:25 | 42.53761 | -82.58823 | 9914 ft | 242 kts | 248° |
| 2026-05-04 22:26 | 42.53100 | -82.60965 | 9526 ft | 248 kts | 248° |
| 2026-05-04 22:26 | 42.52439 | -82.63076 | 9191 ft | 245 kts | 248° |
| 2026-05-04 22:26 | 42.51770 | -82.65199 | 8803 ft | 243 kts | 247° |
| 2026-05-04 22:26 | 42.51113 | -82.67287 | 8501 ft | 240 kts | 247° |
| 2026-05-04 22:27 | 42.50459 | -82.69365 | 8160 ft | 239 kts | 247° |
| 2026-05-04 22:27 | 42.49812 | -82.71430 | 7827 ft | 237 kts | 247° |
| 2026-05-04 22:27 | 42.49178 | -82.73463 | 7610 ft | 235 kts | 247° |
| 2026-05-04 22:27 | 42.48538 | -82.75521 | 7443 ft | 239 kts | 247° |
| 2026-05-04 22:28 | 42.47892 | -82.77602 | 7268 ft | 237 kts | 247° |
| 2026-05-04 22:28 | 42.47255 | -82.79666 | 7075 ft | 238 kts | 247° |
| 2026-05-04 22:28 | 42.46617 | -82.81740 | 6829 ft | 239 kts | 247° |
| 2026-05-04 22:28 | 42.45992 | -82.83777 | 6588 ft | 236 kts | 247° |
| 2026-05-04 22:29 | 42.45365 | -82.85822 | 6356 ft | 234 kts | 247° |
| 2026-05-04 22:29 | 42.44746 | -82.87847 | 6188 ft | 233 kts | 247° |
| 2026-05-04 22:29 | 42.44124 | -82.89880 | 6023 ft | 234 kts | 247° |
| 2026-05-04 22:29 | 42.43502 | -82.91912 | 5854 ft | 233 kts | 247° |
| 2026-05-04 22:30 | 42.42878 | -82.93961 | 5684 ft | 233 kts | 247° |
| 2026-05-04 22:30 | 42.42267 | -82.95972 | 5516 ft | 232 kts | 247° |
| 2026-05-04 22:30 | 42.41654 | -82.97989 | 5348 ft | 232 kts | 247° |
| 2026-05-04 22:30 | 42.41040 | -83.00011 | 5177 ft | 232 kts | 247° |
| 2026-05-04 22:31 | 42.40435 | -83.02006 | 5011 ft | 231 kts | 247° |
| 2026-05-04 22:31 | 42.39826 | -83.04019 | 4839 ft | 229 kts | 248° |
| 2026-05-04 22:31 | 42.39228 | -83.05989 | 4627 ft | 223 kts | 248° |
| 2026-05-04 22:31 | 42.38645 | -83.07909 | 4396 ft | 219 kts | 247° |
| 2026-05-04 22:32 | 42.38081 | -83.09773 | 4170 ft | 214 kts | 248° |
| 2026-05-04 22:32 | 42.37525 | -83.11616 | 4006 ft | 207 kts | 248° |
| 2026-05-04 22:32 | 42.36998 | -83.13373 | 4002 ft | 196 kts | 248° |
| 2026-05-04 22:32 | 42.36488 | -83.15083 | 4008 ft | 197 kts | 248° |
| 2026-05-04 22:33 | 42.35976 | -83.16803 | 4006 ft | 196 kts | 248° |
| 2026-05-04 22:33 | 42.35474 | -83.18491 | 4011 ft | 190 kts | 248° |
| 2026-05-04 22:33 | 42.34997 | -83.20100 | 3999 ft | 177 kts | 248° |
| 2026-05-04 22:33 | 42.34548 | -83.21609 | 4005 ft | 176 kts | 248° |
| 2026-05-04 22:34 | 42.34088 | -83.23153 | 4003 ft | 176 kts | 248° |
| 2026-05-04 22:34 | 42.33541 | -83.24629 | 4003 ft | 175 kts | 231° |
| 2026-05-04 22:34 | 42.32569 | -83.25613 | 3593 ft | 189 kts | 212° |
| 2026-05-04 22:34 | 42.31350 | -83.26415 | 3034 ft | 199 kts | 213° |
| 2026-05-04 22:35 | 42.30167 | -83.27389 | 2603 ft | 201 kts | 216° |
| 2026-05-04 22:35 | 42.28968 | -83.28363 | 2269 ft | 200 kts | 211° |
| 2026-05-04 22:35 | 42.27737 | -83.29150 | 1892 ft | 178 kts | 208° |
| 2026-05-04 22:35 | 42.26706 | -83.29832 | 1631 ft | 156 kts | 211° |
| 2026-05-04 22:36 | 42.25819 | -83.30447 | 1510 ft | 130 kts | 213° |
| 2026-05-04 22:36 | 42.25057 | -83.31090 | 1286 ft | 130 kts | 214° |
| 2026-05-04 22:36 | 42.24252 | -83.31731 | 1166 ft | 134 kts | 211° |
| 2026-05-04 22:36 | 42.23410 | -83.32339 | 1011 ft | 140 kts | 210° |
| 2026-05-04 22:37 | 42.22557 | -83.32977 | 807 ft | 139 kts | 211° |
| 2026-05-04 22:37 | 42.21731 | -83.33590 | 666 ft | 137 kts | 209° |
| 2026-05-04 22:37 | 42.20953 | -83.34158 | 637 ft | 108 kts | 208° |
| 2026-05-04 22:37 | 42.20473 | -83.34510 | 637 ft | 51 kts | 210° |
| 2026-05-04 22:38 | 42.20232 | -83.34689 | 637 ft | 27 kts | 220° |
| 2026-05-04 22:38 | 42.20184 | -83.34871 | 637 ft | 19 kts | 269° |
| 2026-05-04 22:38 | 42.20180 | -83.35053 | 638 ft | 19 kts | 268° |
| 2026-05-04 22:38 | 42.20173 | -83.35269 | 639 ft | 28 kts | 268° |
| 2026-05-04 22:39 | 42.20165 | -83.35596 | 640 ft | 37 kts | 270° |
| 2026-05-04 22:39 | 42.20163 | -83.35946 | 641 ft | 36 kts | 268° |
| 2026-05-04 22:39 | 42.20177 | -83.36258 | 641 ft | 32 kts | 279° |
| 2026-05-04 22:39 | 42.20220 | -83.36559 | 642 ft | 32 kts | 280° |
| 2026-05-04 22:40 | 42.20288 | -83.36781 | 642 ft | 21 kts | 348° |
| 2026-05-04 22:40 | 42.20430 | -83.36694 | 642 ft | 25 kts | 30° |
| 2026-05-04 22:40 | 42.20608 | -83.36571 | 643 ft | 30 kts | 26° |
| 2026-05-04 22:40 | 42.20795 | -83.36434 | 643 ft | 30 kts | 30° |
| 2026-05-04 22:41 | 42.20978 | -83.36299 | 643 ft | 30 kts | 31° |
| 2026-05-04 22:41 | 42.21184 | -83.36149 | 643 ft | 37 kts | 28° |
| 2026-05-04 22:41 | 42.21417 | -83.35976 | 643 ft | 33 kts | 27° |
| 2026-05-04 22:41 | 42.21619 | -83.35833 | 643 ft | 32 kts | 29° |
| 2026-05-04 22:42 | 42.21828 | -83.35686 | 643 ft | 38 kts | 27° |
| 2026-05-04 22:42 | 42.22086 | -83.35498 | 643 ft | 37 kts | 28° |
| 2026-05-04 22:42 | 42.22306 | -83.35326 | 643 ft | 36 kts | 34° |
| 2026-05-04 22:42 | 42.22495 | -83.35101 | 642 ft | 35 kts | 39° |
| 2026-05-04 22:43 | 42.22687 | -83.34937 | 642 ft | 31 kts | 30° |
| 2026-05-04 22:43 | 42.22876 | -83.34795 | 641 ft | 28 kts | 29° |
| 2026-05-04 22:43 | 42.23012 | -83.34727 | 641 ft | 17 kts | 29° |
| 2026-05-04 22:43 | 42.23008 | -83.34672 | 641 ft | 5 kts | 140° |
| 2026-05-04 22:44 | 42.22995 | -83.34658 | 641 ft | 0 kts | 144° |